sensor_id;sensor_type;location;lat;lon;timestamp;pressure;altitude;pressure_sealevel;temperature;humidity
36502;BME280;25393;46.108;3.390;2022-08-06T00:02:23;98327.72;;;23.68;54.72
36502;BME280;25393;46.108;3.390;2022-08-06T00:04:57;98343.97;;;23.68;54.66
36502;BME280;25393;46.108;3.390;2022-08-06T00:07:25;98348.88;;;23.71;54.74
36502;BME280;25393;46.108;3.390;2022-08-06T00:09:57;98346.56;;;23.63;54.97
36502;BME280;25393;46.108;3.390;2022-08-06T00:12:29;98345.91;;;23.56;54.75
36502;BME280;25393;46.108;3.390;2022-08-06T00:14:58;98350.50;;;23.55;54.90
36502;BME280;25393;46.108;3.390;2022-08-06T00:17:25;98320.34;;;23.35;54.98
36502;BME280;25393;46.108;3.390;2022-08-06T00:19:59;98332.94;;;23.41;55.21
36502;BME280;25393;46.108;3.390;2022-08-06T00:22:26;98335.13;;;23.44;54.96
36502;BME280;25393;46.108;3.390;2022-08-06T00:24:57;98297.94;;;23.23;55.27
36502;BME280;25393;46.108;3.390;2022-08-06T00:27:27;98318.97;;;23.32;55.27
36502;BME280;25393;46.108;3.390;2022-08-06T00:30:06;98333.75;;;23.42;55.37
36502;BME280;25393;46.108;3.390;2022-08-06T00:32:44;98335.03;;;23.39;55.47
36502;BME280;25393;46.108;3.390;2022-08-06T00:35:17;98324.44;;;23.37;55.33
36502;BME280;25393;46.108;3.390;2022-08-06T00:37:43;98316.50;;;23.31;55.50
36502;BME280;25393;46.108;3.390;2022-08-06T00:40:28;98316.66;;;23.24;55.29
36502;BME280;25393;46.108;3.390;2022-08-06T00:42:58;98312.22;;;23.18;55.28
36502;BME280;25393;46.108;3.390;2022-08-06T00:45:29;98329.69;;;23.27;55.58
36502;BME280;25393;46.108;3.390;2022-08-06T00:48:03;98317.03;;;23.16;55.74
36502;BME280;25393;46.108;3.390;2022-08-06T00:50:33;98325.81;;;23.23;55.93
36502;BME280;25393;46.108;3.390;2022-08-06T00:53:01;98319.56;;;23.06;55.72
36502;BME280;25393;46.108;3.390;2022-08-06T00:55:30;98327.84;;;23.16;56.22
36502;BME280;25393;46.108;3.390;2022-08-06T00:58:03;98319.06;;;23.09;56.24
36502;BME280;25393;46.108;3.390;2022-08-06T01:00:32;98317.09;;;23.05;56.43
36502;BME280;25393;46.108;3.390;2022-08-06T01:03:04;98312.16;;;23.02;56.22
36502;BME280;25393;46.108;3.390;2022-08-06T01:05:31;98302.81;;;22.93;56.19
36502;BME280;25393;46.108;3.390;2022-08-06T01:08:17;98322.75;;;23.03;56.36
36502;BME280;25393;46.108;3.390;2022-08-06T01:10:45;98311.25;;;22.96;56.20
36502;BME280;25393;46.108;3.390;2022-08-06T01:13:15;98317.50;;;22.97;56.37
36502;BME280;25393;46.108;3.390;2022-08-06T01:16:23;98314.78;;;22.97;56.25
36502;BME280;25393;46.108;3.390;2022-08-06T01:28:18;98313.03;;;22.90;56.16
36502;BME280;25393;46.108;3.390;2022-08-06T01:30:59;98324.91;;;22.89;55.81
36502;BME280;25393;46.108;3.390;2022-08-06T01:33:35;98318.09;;;22.87;56.02
36502;BME280;25393;46.108;3.390;2022-08-06T01:36:07;98322.03;;;22.79;56.17
36502;BME280;25393;46.108;3.390;2022-08-06T01:38:40;98300.63;;;22.66;56.14
36502;BME280;25393;46.108;3.390;2022-08-06T01:41:13;98300.88;;;22.65;55.94
36502;BME280;25393;46.108;3.390;2022-08-06T01:44:23;98309.94;;;22.70;55.70
36502;BME280;25393;46.108;3.390;2022-08-06T01:46:57;98307.81;;;22.61;55.63
36502;BME280;25393;46.108;3.390;2022-08-06T01:49:29;98328.84;;;22.70;55.89
36502;BME280;25393;46.108;3.390;2022-08-06T01:52:18;98312.75;;;22.64;56.22
36502;BME280;25393;46.108;3.390;2022-08-06T01:54:56;98326.25;;;22.64;56.48
36502;BME280;25393;46.108;3.390;2022-08-06T01:57:26;98325.00;;;22.55;56.81
36502;BME280;25393;46.108;3.390;2022-08-06T02:00:13;98328.84;;;22.59;56.67
36502;BME280;25393;46.108;3.390;2022-08-06T02:02:43;98316.06;;;22.54;56.83
36502;BME280;25393;46.108;3.390;2022-08-06T02:05:12;98327.22;;;22.58;56.86
36502;BME280;25393;46.108;3.390;2022-08-06T02:07:42;98315.13;;;22.49;57.07
36502;BME280;25393;46.108;3.390;2022-08-06T02:10:32;98321.22;;;22.56;56.97
36502;BME280;25393;46.108;3.390;2022-08-06T02:13:03;98313.84;;;22.51;56.93
36502;BME280;25393;46.108;3.390;2022-08-06T02:15:33;98322.97;;;22.62;57.05
36502;BME280;25393;46.108;3.390;2022-08-06T02:18:22;98322.84;;;22.57;57.09
36502;BME280;25393;46.108;3.390;2022-08-06T02:21:06;98313.25;;;22.49;57.00
36502;BME280;25393;46.108;3.390;2022-08-06T02:23:45;98309.28;;;22.40;57.37
36502;BME280;25393;46.108;3.390;2022-08-06T02:26:16;98319.72;;;22.36;57.26
36502;BME280;25393;46.108;3.390;2022-08-06T02:28:46;98318.44;;;22.39;57.32
36502;BME280;25393;46.108;3.390;2022-08-06T02:31:16;98312.25;;;22.27;57.33
36502;BME280;25393;46.108;3.390;2022-08-06T02:33:48;98296.63;;;22.17;57.42
36502;BME280;25393;46.108;3.390;2022-08-06T02:36:40;98315.75;;;22.27;57.41
36502;BME280;25393;46.108;3.390;2022-08-06T02:39:23;98306.84;;;22.15;57.72
36502;BME280;25393;46.108;3.390;2022-08-06T02:44:51;98298.31;;;21.95;58.17
36502;BME280;25393;46.108;3.390;2022-08-06T02:50:13;98321.50;;;21.96;57.54
36502;BME280;25393;46.108;3.390;2022-08-06T02:52:45;98329.34;;;21.86;57.44
36502;BME280;25393;46.108;3.390;2022-08-06T02:55:26;98322.88;;;21.75;57.54
36502;BME280;25393;46.108;3.390;2022-08-06T02:58:12;98324.06;;;21.79;57.47
36502;BME280;25393;46.108;3.390;2022-08-06T03:00:42;98322.16;;;21.57;57.84
36502;BME280;25393;46.108;3.390;2022-08-06T03:03:19;98332.13;;;21.56;57.95
36502;BME280;25393;46.108;3.390;2022-08-06T03:06:03;98326.84;;;21.50;58.84
36502;BME280;25393;46.108;3.390;2022-08-06T03:08:33;98332.25;;;21.50;58.71
36502;BME280;25393;46.108;3.390;2022-08-06T03:11:03;98332.69;;;21.47;59.08
36502;BME280;25393;46.108;3.390;2022-08-06T03:13:31;98344.63;;;21.39;59.11
36502;BME280;25393;46.108;3.390;2022-08-06T03:16:02;98342.63;;;21.34;59.37
36502;BME280;25393;46.108;3.390;2022-08-06T03:18:30;98337.09;;;21.29;59.00
36502;BME280;25393;46.108;3.390;2022-08-06T03:20:57;98337.88;;;21.18;59.26
36502;BME280;25393;46.108;3.390;2022-08-06T03:23:26;98333.09;;;21.02;59.63
36502;BME280;25393;46.108;3.390;2022-08-06T03:25:53;98316.41;;;20.93;59.92
36502;BME280;25393;46.108;3.390;2022-08-06T03:28:22;98322.72;;;20.87;60.21
36502;BME280;25393;46.108;3.390;2022-08-06T03:30:51;98347.13;;;20.92;60.40
36502;BME280;25393;46.108;3.390;2022-08-06T03:33:21;98329.59;;;20.83;60.50
36502;BME280;25393;46.108;3.390;2022-08-06T03:36:09;98340.63;;;20.82;60.75
36502;BME280;25393;46.108;3.390;2022-08-06T03:38:45;98348.19;;;20.73;60.77
36502;BME280;25393;46.108;3.390;2022-08-06T03:41:20;98324.88;;;20.49;60.94
36502;BME280;25393;46.108;3.390;2022-08-06T03:43:57;98349.25;;;20.54;61.25
36502;BME280;25393;46.108;3.390;2022-08-06T03:49:14;98356.88;;;20.39;62.05
36502;BME280;25393;46.108;3.390;2022-08-06T03:51:53;98356.88;;;20.39;62.31
36502;BME280;25393;46.108;3.390;2022-08-06T03:54:31;98351.56;;;20.32;62.51
36502;BME280;25393;46.108;3.390;2022-08-06T03:57:11;98356.38;;;20.24;62.68
36502;BME280;25393;46.108;3.390;2022-08-06T03:59:43;98357.28;;;20.18;63.28
36502;BME280;25393;46.108;3.390;2022-08-06T04:02:36;98339.16;;;20.07;63.18
36502;BME280;25393;46.108;3.390;2022-08-06T04:05:20;98362.06;;;20.16;63.35
36502;BME280;25393;46.108;3.390;2022-08-06T04:07:51;98358.53;;;20.15;63.63
36502;BME280;25393;46.108;3.390;2022-08-06T04:10:23;98362.72;;;20.11;63.78
36502;BME280;25393;46.108;3.390;2022-08-06T04:13:02;98351.63;;;20.01;63.83
36502;BME280;25393;46.108;3.390;2022-08-06T04:15:51;98360.69;;;20.07;64.02
36502;BME280;25393;46.108;3.390;2022-08-06T04:18:33;98345.00;;;20.04;64.22
36502;BME280;25393;46.108;3.390;2022-08-06T04:21:15;98359.84;;;20.06;64.01
36502;BME280;25393;46.108;3.390;2022-08-06T04:24:03;98356.09;;;19.89;64.59
36502;BME280;25393;46.108;3.390;2022-08-06T04:26:36;98360.19;;;19.91;64.33
36502;BME280;25393;46.108;3.390;2022-08-06T04:29:05;98369.22;;;19.79;64.72
36502;BME280;25393;46.108;3.390;2022-08-06T04:31:36;98363.19;;;19.83;64.36
36502;BME280;25393;46.108;3.390;2022-08-06T04:34:24;98356.72;;;19.84;64.53
36502;BME280;25393;46.108;3.390;2022-08-06T04:36:54;98379.03;;;19.91;64.44
36502;BME280;25393;46.108;3.390;2022-08-06T04:39:21;98386.94;;;19.86;64.91
36502;BME280;25393;46.108;3.390;2022-08-06T04:42:04;98383.03;;;19.82;64.96
36502;BME280;25393;46.108;3.390;2022-08-06T04:44:33;98379.84;;;19.67;65.09
36502;BME280;25393;46.108;3.390;2022-08-06T04:47:01;98380.03;;;19.72;65.58
36502;BME280;25393;46.108;3.390;2022-08-06T04:49:30;98387.66;;;19.75;65.59
36502;BME280;25393;46.108;3.390;2022-08-06T04:52:24;98387.84;;;19.74;65.77
36502;BME280;25393;46.108;3.390;2022-08-06T04:55:04;98393.53;;;19.90;65.67
36502;BME280;25393;46.108;3.390;2022-08-06T04:57:48;98388.75;;;19.92;65.37
36502;BME280;25393;46.108;3.390;2022-08-06T05:00:33;98391.75;;;20.03;64.79
36502;BME280;25393;46.108;3.390;2022-08-06T05:03:20;98392.53;;;20.10;65.43
36502;BME280;25393;46.108;3.390;2022-08-06T05:06:16;98401.28;;;20.23;64.68
36502;BME280;25393;46.108;3.390;2022-08-06T05:08:49;98405.59;;;20.31;64.57
36502;BME280;25393;46.108;3.390;2022-08-06T05:11:26;98407.25;;;20.32;64.45
36502;BME280;25393;46.108;3.390;2022-08-06T05:14:02;98414.69;;;20.36;64.12
36502;BME280;25393;46.108;3.390;2022-08-06T05:16:36;98416.69;;;20.41;64.27
36502;BME280;25393;46.108;3.390;2022-08-06T05:19:26;98419.16;;;20.42;64.06
36502;BME280;25393;46.108;3.390;2022-08-06T05:21:58;98405.22;;;20.27;64.05
36502;BME280;25393;46.108;3.390;2022-08-06T05:24:39;98415.91;;;20.34;64.57
36502;BME280;25393;46.108;3.390;2022-08-06T05:27:26;98422.03;;;20.48;63.77
36502;BME280;25393;46.108;3.390;2022-08-06T05:30:13;98425.75;;;20.47;64.08
36502;BME280;25393;46.108;3.390;2022-08-06T05:32:46;98423.00;;;20.53;64.16
36502;BME280;25393;46.108;3.390;2022-08-06T05:35:22;98419.03;;;20.56;63.68
36502;BME280;25393;46.108;3.390;2022-08-06T05:38:07;98422.78;;;20.55;63.65
36502;BME280;25393;46.108;3.390;2022-08-06T05:40:37;98430.38;;;20.76;64.88
36502;BME280;25393;46.108;3.390;2022-08-06T05:43:23;98417.84;;;20.88;62.54
36502;BME280;25393;46.108;3.390;2022-08-06T05:46:20;98403.78;;;20.68;62.29
36502;BME280;25393;46.108;3.390;2022-08-06T05:49:06;98416.50;;;20.61;62.38
36502;BME280;25393;46.108;3.390;2022-08-06T05:52:08;98433.41;;;20.86;63.83
36502;BME280;25393;46.108;3.390;2022-08-06T05:54:55;98435.88;;;20.87;62.71
36502;BME280;25393;46.108;3.390;2022-08-06T05:57:31;98438.09;;;20.90;62.32
36502;BME280;25393;46.108;3.390;2022-08-06T06:00:11;98435.47;;;21.02;62.10
36502;BME280;25393;46.108;3.390;2022-08-06T06:03:02;98436.97;;;20.98;61.51
36502;BME280;25393;46.108;3.390;2022-08-06T06:05:30;98443.56;;;21.02;61.29
36502;BME280;25393;46.108;3.390;2022-08-06T06:08:18;98441.84;;;21.08;61.97
36502;BME280;25393;46.108;3.390;2022-08-06T06:11:06;98445.28;;;21.15;61.09
36502;BME280;25393;46.108;3.390;2022-08-06T06:13:37;98442.31;;;21.23;60.86
36502;BME280;25393;46.108;3.390;2022-08-06T06:16:26;98449.84;;;21.32;61.09
36502;BME280;25393;46.108;3.390;2022-08-06T06:19:09;98445.78;;;21.41;60.50
36502;BME280;25393;46.108;3.390;2022-08-06T06:21:46;98446.44;;;21.55;60.50
36502;BME280;25393;46.108;3.390;2022-08-06T06:24:40;98449.19;;;21.67;60.19
36502;BME280;25393;46.108;3.390;2022-08-06T06:27:16;98444.81;;;21.96;59.54
36502;BME280;25393;46.108;3.390;2022-08-06T06:30:08;98436.63;;;22.14;59.68
36502;BME280;25393;46.108;3.390;2022-08-06T06:35:58;98440.06;;;22.44;57.51
36502;BME280;25393;46.108;3.390;2022-08-06T06:41:42;98438.56;;;22.48;57.31
36502;BME280;25393;46.108;3.390;2022-08-06T06:44:27;98439.81;;;22.46;57.12
36502;BME280;25393;46.108;3.390;2022-08-06T06:47:23;98442.28;;;22.47;58.09
36502;BME280;25393;46.108;3.390;2022-08-06T06:50:02;98440.56;;;22.76;57.13
36502;BME280;25393;46.108;3.390;2022-08-06T06:52:35;98439.66;;;23.10;56.01
36502;BME280;25393;46.108;3.390;2022-08-06T06:55:36;98443.91;;;23.34;55.33
36502;BME280;25393;46.108;3.390;2022-08-06T06:58:36;98436.81;;;23.57;53.90
36502;BME280;25393;46.108;3.390;2022-08-06T07:01:14;98437.00;;;23.67;53.70
36502;BME280;25393;46.108;3.390;2022-08-06T07:03:59;98445.88;;;23.79;53.42
36502;BME280;25393;46.108;3.390;2022-08-06T07:06:28;98439.06;;;23.93;53.32
36502;BME280;25393;46.108;3.390;2022-08-06T07:09:15;98449.47;;;24.13;52.64
36502;BME280;25393;46.108;3.390;2022-08-06T07:12:03;98448.91;;;24.27;51.82
36502;BME280;25393;46.108;3.390;2022-08-06T07:14:40;98438.47;;;24.36;51.72
36502;BME280;25393;46.108;3.390;2022-08-06T07:17:08;98439.44;;;24.47;51.12
36502;BME280;25393;46.108;3.390;2022-08-06T07:19:59;98433.38;;;24.40;50.77
36502;BME280;25393;46.108;3.390;2022-08-06T07:22:29;98435.94;;;24.29;50.74
36502;BME280;25393;46.108;3.390;2022-08-06T07:25:00;98444.38;;;24.16;51.06
36502;BME280;25393;46.108;3.390;2022-08-06T07:27:32;98441.00;;;24.09;51.42
36502;BME280;25393;46.108;3.390;2022-08-06T07:30:12;98432.88;;;24.09;51.47
36502;BME280;25393;46.108;3.390;2022-08-06T07:32:42;98443.63;;;24.21;51.88
36502;BME280;25393;46.108;3.390;2022-08-06T07:35:15;98437.97;;;24.22;51.22
36502;BME280;25393;46.108;3.390;2022-08-06T07:38:11;98451.34;;;24.62;51.37
36502;BME280;25393;46.108;3.390;2022-08-06T07:40:52;98432.00;;;24.75;50.32
36502;BME280;25393;46.108;3.390;2022-08-06T07:43:39;98438.97;;;24.88;50.26
36502;BME280;25393;46.108;3.390;2022-08-06T07:46:07;98448.69;;;24.67;49.73
36502;BME280;25393;46.108;3.390;2022-08-06T07:48:40;98440.13;;;24.92;50.87
36502;BME280;25393;46.108;3.390;2022-08-06T07:51:19;98446.41;;;25.41;49.22
36502;BME280;25393;46.108;3.390;2022-08-06T07:54:01;98441.88;;;25.68;48.83
36502;BME280;25393;46.108;3.390;2022-08-06T07:56:37;98447.81;;;25.97;47.54
36502;BME280;25393;46.108;3.390;2022-08-06T07:59:25;98438.97;;;26.07;46.79
36502;BME280;25393;46.108;3.390;2022-08-06T08:01:57;98435.66;;;26.00;47.03
36502;BME280;25393;46.108;3.390;2022-08-06T08:04:27;98438.66;;;26.03;47.29
36502;BME280;25393;46.108;3.390;2022-08-06T08:07:20;98434.34;;;26.07;47.01
36502;BME280;25393;46.108;3.390;2022-08-06T08:10:03;98435.50;;;26.16;47.37
36502;BME280;25393;46.108;3.390;2022-08-06T08:12:31;98431.94;;;26.43;46.71
36502;BME280;25393;46.108;3.390;2022-08-06T08:15:05;98440.25;;;26.68;46.10
36502;BME280;25393;46.108;3.390;2022-08-06T08:17:44;98445.91;;;26.98;46.08
36502;BME280;25393;46.108;3.390;2022-08-06T08:20:24;98436.72;;;27.14;45.17
36502;BME280;25393;46.108;3.390;2022-08-06T08:23:02;98424.94;;;26.94;45.22
36502;BME280;25393;46.108;3.390;2022-08-06T08:25:30;98442.59;;;26.91;45.53
36502;BME280;25393;46.108;3.390;2022-08-06T08:28:09;98444.25;;;27.02;45.08
36502;BME280;25393;46.108;3.390;2022-08-06T08:30:40;98428.00;;;27.07;44.94
36502;BME280;25393;46.108;3.390;2022-08-06T08:33:07;98430.19;;;27.15;45.33
36502;BME280;25393;46.108;3.390;2022-08-06T08:35:41;98428.13;;;27.43;45.04
36502;BME280;25393;46.108;3.390;2022-08-06T08:38:27;98429.56;;;27.65;44.68
36502;BME280;25393;46.108;3.390;2022-08-06T08:40:56;98420.59;;;27.75;44.28
36502;BME280;25393;46.108;3.390;2022-08-06T08:43:30;98424.69;;;27.98;43.50
36502;BME280;25393;46.108;3.390;2022-08-06T08:46:20;98438.81;;;27.54;43.94
36502;BME280;25393;46.108;3.390;2022-08-06T08:49:00;98431.75;;;27.94;44.38
36502;BME280;25393;46.108;3.390;2022-08-06T08:51:31;98426.38;;;28.24;43.57
36502;BME280;25393;46.108;3.390;2022-08-06T08:54:11;98401.56;;;28.31;43.03
36502;BME280;25393;46.108;3.390;2022-08-06T08:56:44;98409.94;;;28.64;42.58
36502;BME280;25393;46.108;3.390;2022-08-06T08:59:31;98394.38;;;28.90;41.87
36502;BME280;25393;46.108;3.390;2022-08-06T09:02:22;98404.97;;;29.02;40.72
36502;BME280;25393;46.108;3.390;2022-08-06T09:04:53;98416.34;;;29.19;41.63
36502;BME280;25393;46.108;3.390;2022-08-06T09:07:24;98415.44;;;29.44;41.21
36502;BME280;25393;46.108;3.390;2022-08-06T09:10:07;98428.97;;;29.64;40.94
36502;BME280;25393;46.108;3.390;2022-08-06T09:12:38;98405.91;;;29.90;40.23
36502;BME280;25393;46.108;3.390;2022-08-06T09:15:14;98422.41;;;30.38;39.79
36502;BME280;25393;46.108;3.390;2022-08-06T09:17:47;98426.50;;;30.45;38.77
36502;BME280;25393;46.108;3.390;2022-08-06T09:20:35;98396.44;;;30.11;39.49
36502;BME280;25393;46.108;3.390;2022-08-06T09:23:03;98430.28;;;30.49;38.97
36502;BME280;25393;46.108;3.390;2022-08-06T09:25:40;98429.25;;;30.98;38.68
36502;BME280;25393;46.108;3.390;2022-08-06T09:31:08;98403.53;;;31.17;38.04
36502;BME280;25393;46.108;3.390;2022-08-06T09:34:05;98420.56;;;31.57;37.65
36502;BME280;25393;46.108;3.390;2022-08-06T09:36:52;98400.94;;;31.87;36.34
36502;BME280;25393;46.108;3.390;2022-08-06T09:39:36;98421.66;;;31.93;37.22
36502;BME280;25393;46.108;3.390;2022-08-06T09:42:40;98419.50;;;32.60;36.35
36502;BME280;25393;46.108;3.390;2022-08-06T09:45:10;98420.94;;;32.85;35.19
36502;BME280;25393;46.108;3.390;2022-08-06T09:47:47;98410.28;;;32.97;35.18
36502;BME280;25393;46.108;3.390;2022-08-06T09:50:43;98406.94;;;33.27;33.70
36502;BME280;25393;46.108;3.390;2022-08-06T09:53:14;98406.44;;;33.11;35.64
36502;BME280;25393;46.108;3.390;2022-08-06T09:55:46;98416.66;;;33.47;35.14
36502;BME280;25393;46.108;3.390;2022-08-06T09:58:14;98392.78;;;33.83;34.61
36502;BME280;25393;46.108;3.390;2022-08-06T10:00:51;98399.38;;;33.33;34.00
36502;BME280;25393;46.108;3.390;2022-08-06T10:03:18;98415.25;;;33.63;33.95
36502;BME280;25393;46.108;3.390;2022-08-06T10:06:10;98408.06;;;33.76;33.01
36502;BME280;25393;46.108;3.390;2022-08-06T10:08:41;98397.66;;;33.86;33.15
36502;BME280;25393;46.108;3.390;2022-08-06T10:11:16;98401.09;;;33.92;34.13
36502;BME280;25393;46.108;3.390;2022-08-06T10:14:30;98410.00;;;34.33;33.12
36502;BME280;25393;46.108;3.390;2022-08-06T10:17:12;98397.97;;;34.51;32.75
36502;BME280;25393;46.108;3.390;2022-08-06T10:19:45;98406.75;;;34.93;32.25
36502;BME280;25393;46.108;3.390;2022-08-06T10:22:19;98411.69;;;34.74;32.50
36502;BME280;25393;46.108;3.390;2022-08-06T10:24:51;98399.69;;;34.70;32.39
36502;BME280;25393;46.108;3.390;2022-08-06T10:27:28;98401.66;;;34.69;30.90
36502;BME280;25393;46.108;3.390;2022-08-06T10:30:08;98405.00;;;35.05;31.21
36502;BME280;25393;46.108;3.390;2022-08-06T10:32:43;98402.31;;;35.23;30.72
36502;BME280;25393;46.108;3.390;2022-08-06T10:35:15;98403.50;;;35.39;31.44
36502;BME280;25393;46.108;3.390;2022-08-06T10:37:50;98402.75;;;35.64;30.93
36502;BME280;25393;46.108;3.390;2022-08-06T10:40:19;98396.75;;;35.79;30.66
36502;BME280;25393;46.108;3.390;2022-08-06T10:42:58;98389.63;;;35.95;29.70
36502;BME280;25393;46.108;3.390;2022-08-06T10:45:29;98392.34;;;36.04;29.98
36502;BME280;25393;46.108;3.390;2022-08-06T10:48:16;98395.13;;;36.04;29.91
36502;BME280;25393;46.108;3.390;2022-08-06T10:51:05;98393.34;;;35.99;29.79
36502;BME280;25393;46.108;3.390;2022-08-06T10:53:35;98378.69;;;36.42;29.72
36502;BME280;25393;46.108;3.390;2022-08-06T10:56:24;98376.91;;;36.92;28.75
36502;BME280;25393;46.108;3.390;2022-08-06T10:59:05;98369.91;;;36.57;28.85
36502;BME280;25393;46.108;3.390;2022-08-06T11:01:41;98381.66;;;36.83;28.78
36502;BME280;25393;46.108;3.390;2022-08-06T11:12:54;98371.31;;;37.10;27.94
36502;BME280;25393;46.108;3.390;2022-08-06T11:15:23;98377.25;;;36.36;28.75
36502;BME280;25393;46.108;3.390;2022-08-06T11:18:08;98378.34;;;36.52;28.80
36502;BME280;25393;46.108;3.390;2022-08-06T11:20:43;98372.97;;;37.02;28.11
36502;BME280;25393;46.108;3.390;2022-08-06T11:26:00;98357.63;;;35.34;30.02
36502;BME280;25393;46.108;3.390;2022-08-06T11:31:02;98363.53;;;35.67;28.51
36502;BME280;25393;46.108;3.390;2022-08-06T11:36:00;98336.94;;;36.61;28.36
36502;BME280;25393;46.108;3.390;2022-08-06T11:41:22;98352.66;;;36.69;27.74
36502;BME280;25393;46.108;3.390;2022-08-06T11:44:19;98359.72;;;37.16;27.77
36502;BME280;25393;46.108;3.390;2022-08-06T11:47:09;98353.88;;;37.68;26.87
36502;BME280;25393;46.108;3.390;2022-08-06T11:49:47;98352.06;;;38.05;26.09
36502;BME280;25393;46.108;3.390;2022-08-06T11:55:09;98358.88;;;37.86;25.72
36502;BME280;25393;46.108;3.390;2022-08-06T12:00:54;98352.28;;;36.79;26.74
36502;BME280;25393;46.108;3.390;2022-08-06T12:03:37;98346.91;;;35.16;29.03
36502;BME280;25393;46.108;3.390;2022-08-06T12:06:24;98353.09;;;35.38;29.02
36502;BME280;25393;46.108;3.390;2022-08-06T12:09:11;98339.94;;;36.30;26.88
36502;BME280;25393;46.108;3.390;2022-08-06T12:14:58;98332.16;;;37.58;25.39
36502;BME280;25393;46.108;3.390;2022-08-06T12:17:32;98335.72;;;37.79;24.81
36502;BME280;25393;46.108;3.390;2022-08-06T12:20:39;98329.03;;;37.59;24.10
36502;BME280;25393;46.108;3.390;2022-08-06T12:23:15;98322.53;;;37.76;24.36
36502;BME280;25393;46.108;3.390;2022-08-06T12:25:47;98321.50;;;37.68;24.37
36502;BME280;25393;46.108;3.390;2022-08-06T12:28:20;98312.22;;;37.02;25.15
36502;BME280;25393;46.108;3.390;2022-08-06T12:30:52;98329.84;;;37.39;25.26
36502;BME280;25393;46.108;3.390;2022-08-06T12:33:21;98323.59;;;37.71;24.10
36502;BME280;25393;46.108;3.390;2022-08-06T12:35:52;98321.75;;;37.96;24.43
36502;BME280;25393;46.108;3.390;2022-08-06T12:38:22;98317.53;;;38.23;23.96
36502;BME280;25393;46.108;3.390;2022-08-06T12:41:03;98316.28;;;38.89;24.93
36502;BME280;25393;46.108;3.390;2022-08-06T12:43:38;98316.84;;;39.59;23.64
36502;BME280;25393;46.108;3.390;2022-08-06T12:46:23;98308.25;;;39.76;22.51
36502;BME280;25393;46.108;3.390;2022-08-06T12:48:57;98303.84;;;39.48;22.35
36502;BME280;25393;46.108;3.390;2022-08-06T12:51:29;98291.41;;;39.17;23.19
36502;BME280;25393;46.108;3.390;2022-08-06T12:54:06;98293.38;;;39.17;22.63
36502;BME280;25393;46.108;3.390;2022-08-06T12:56:37;98310.09;;;39.20;22.36
36502;BME280;25393;46.108;3.390;2022-08-06T12:59:08;98291.88;;;39.59;22.92
36502;BME280;25393;46.108;3.390;2022-08-06T13:01:49;98294.63;;;40.42;21.94
36502;BME280;25393;46.108;3.390;2022-08-06T13:04:37;98300.34;;;40.97;22.11
36502;BME280;25393;46.108;3.390;2022-08-06T13:07:07;98285.72;;;41.00;20.38
36502;BME280;25393;46.108;3.390;2022-08-06T13:09:38;98291.69;;;40.08;22.63
36502;BME280;25393;46.108;3.390;2022-08-06T13:12:26;98268.50;;;40.00;22.45
36502;BME280;25393;46.108;3.390;2022-08-06T13:15:14;98280.47;;;40.32;21.91
36502;BME280;25393;46.108;3.390;2022-08-06T13:18:07;98290.84;;;39.91;22.25
36502;BME280;25393;46.108;3.390;2022-08-06T13:20:56;98264.91;;;40.00;22.80
36502;BME280;25393;46.108;3.390;2022-08-06T13:23:34;98280.50;;;40.04;22.53
36502;BME280;25393;46.108;3.390;2022-08-06T13:26:21;98271.16;;;40.24;22.24
36502;BME280;25393;46.108;3.390;2022-08-06T13:29:04;98265.94;;;40.54;22.01
36502;BME280;25393;46.108;3.390;2022-08-06T13:32:00;98269.88;;;40.69;21.43
36502;BME280;25393;46.108;3.390;2022-08-06T13:34:28;98265.41;;;40.80;21.76
36502;BME280;25393;46.108;3.390;2022-08-06T13:36:58;98263.28;;;40.58;21.29
36502;BME280;25393;46.108;3.390;2022-08-06T13:39:28;98261.28;;;40.74;22.28
36502;BME280;25393;46.108;3.390;2022-08-06T13:42:07;98262.63;;;40.49;21.03
36502;BME280;25393;46.108;3.390;2022-08-06T13:44:42;98258.84;;;40.10;22.41
36502;BME280;25393;46.108;3.390;2022-08-06T13:47:13;98262.94;;;40.00;21.98
36502;BME280;25393;46.108;3.390;2022-08-06T13:50:03;98252.97;;;39.83;22.52
36502;BME280;25393;46.108;3.390;2022-08-06T13:52:33;98256.78;;;40.07;22.64
36502;BME280;25393;46.108;3.390;2022-08-06T13:55:00;98241.78;;;40.39;21.98
36502;BME280;25393;46.108;3.390;2022-08-06T13:57:33;98244.00;;;40.49;21.93
36502;BME280;25393;46.108;3.390;2022-08-06T14:00:09;98248.75;;;40.49;21.88
36502;BME280;25393;46.108;3.390;2022-08-06T14:02:37;98244.28;;;40.28;22.03
36502;BME280;25393;46.108;3.390;2022-08-06T14:05:05;98250.16;;;40.11;22.40
36502;BME280;25393;46.108;3.390;2022-08-06T14:07:49;98238.66;;;40.25;21.96
36502;BME280;25393;46.108;3.390;2022-08-06T14:10:15;98231.97;;;39.98;22.22
36502;BME280;25393;46.108;3.390;2022-08-06T14:12:52;98235.03;;;40.09;22.02
36502;BME280;25393;46.108;3.390;2022-08-06T14:15:42;98235.94;;;40.13;22.21
36502;BME280;25393;46.108;3.390;2022-08-06T14:18:10;98216.44;;;40.25;22.15
36502;BME280;25393;46.108;3.390;2022-08-06T14:20:38;98230.31;;;40.40;21.70
36502;BME280;25393;46.108;3.390;2022-08-06T14:23:07;98220.81;;;40.41;21.90
36502;BME280;25393;46.108;3.390;2022-08-06T14:25:37;98217.13;;;40.53;21.60
36502;BME280;25393;46.108;3.390;2022-08-06T14:28:24;98222.31;;;39.92;21.74
36502;BME280;25393;46.108;3.390;2022-08-06T14:30:51;98205.69;;;38.96;21.83
36502;BME280;25393;46.108;3.390;2022-08-06T14:33:21;98224.06;;;38.65;22.68
36502;BME280;25393;46.108;3.390;2022-08-06T14:36:04;98208.84;;;38.46;23.13
36502;BME280;25393;46.108;3.390;2022-08-06T14:38:33;98213.19;;;38.11;23.57
36502;BME280;25393;46.108;3.390;2022-08-06T14:41:00;98194.78;;;38.52;24.45
36502;BME280;25393;46.108;3.390;2022-08-06T14:44:06;98197.66;;;38.91;23.61
36502;BME280;25393;46.108;3.390;2022-08-06T14:46:52;98197.63;;;39.31;21.93
36502;BME280;25393;46.108;3.390;2022-08-06T14:49:20;98192.78;;;38.88;22.09
36502;BME280;25393;46.108;3.390;2022-08-06T14:51:48;98191.06;;;38.72;22.16